createdAt,value
2022-07-25T00:01:08.043Z,15.55
2022-07-25T00:03:37.093Z,17.38
2022-07-25T00:06:05.724Z,12.63
2022-07-25T00:08:32.212Z,12.73
2022-07-25T00:10:58.634Z,13.93
2022-07-25T00:13:25.067Z,12.93
2022-07-25T00:15:51.703Z,14.98
2022-07-25T00:18:18.184Z,14.27
2022-07-25T00:20:44.621Z,12.63
2022-07-25T00:23:11.067Z,14.77
2022-07-25T00:25:37.703Z,12.70
2022-07-25T00:28:04.358Z,14.27
2022-07-25T00:30:30.853Z,12.80
2022-07-25T00:32:57.277Z,16.35
2022-07-25T00:35:23.805Z,14.88
2022-07-25T00:37:50.731Z,14.27
2022-07-25T00:40:17.272Z,12.75
2022-07-25T00:42:43.714Z,12.65
2022-07-25T00:45:10.854Z,13.93
2022-07-25T00:47:37.328Z,13.55
2022-07-25T00:50:03.815Z,18.17
2022-07-25T00:52:30.407Z,13.27
2022-07-25T00:54:57.119Z,17.90
2022-07-25T00:57:23.745Z,13.60
2022-07-25T00:59:50.212Z,14.25
2022-07-25T01:02:16.844Z,14.00
2022-07-25T01:04:43.420Z,13.52
2022-07-25T01:07:13.782Z,13.07
2022-07-25T01:09:40.255Z,16.08
2022-07-25T01:12:06.870Z,14.25
2022-07-25T01:14:33.275Z,17.45
2022-07-25T01:16:59.664Z,14.93
2022-07-25T01:19:26.145Z,14.00
2022-07-25T01:21:52.627Z,15.13
2022-07-25T01:24:19.065Z,16.25
2022-07-25T01:26:45.498Z,14.20
2022-07-25T01:29:11.968Z,17.15
2022-07-25T01:31:38.455Z,14.63
2022-07-25T01:34:05.200Z,16.83
2022-07-25T01:36:31.915Z,11.80
2022-07-25T01:38:58.838Z,15.40
2022-07-25T01:41:25.383Z,15.65
2022-07-25T01:43:51.841Z,17.13
2022-07-25T01:46:18.351Z,17.33
2022-07-25T01:48:44.893Z,13.52
2022-07-25T01:51:11.450Z,15.13
2022-07-25T01:53:37.914Z,16.60
2022-07-25T01:56:05.764Z,14.60
2022-07-25T01:58:34.989Z,15.02
2022-07-25T02:01:01.443Z,19.70
2022-07-25T02:03:30.948Z,16.50
2022-07-25T02:06:01.789Z,12.32
2022-07-25T02:08:28.645Z,16.05
2022-07-25T02:10:56.869Z,16.27
2022-07-25T02:13:24.393Z,17.50
2022-07-25T02:15:50.886Z,14.50
2022-07-25T02:18:17.443Z,16.27
2022-07-25T02:20:43.857Z,16.20
2022-07-25T02:23:10.808Z,16.10
2022-07-25T02:25:37.235Z,21.25
2022-07-25T02:28:03.772Z,17.73
2022-07-25T02:30:30.318Z,16.77
2022-07-25T02:32:56.842Z,22.02
2022-07-25T02:35:23.288Z,19.52
2022-07-25T02:37:51.307Z,18.88
2022-07-25T02:40:17.765Z,16.70
2022-07-25T02:42:44.194Z,18.20
2022-07-25T02:45:10.659Z,16.73
2022-07-25T02:47:37.226Z,20.00
2022-07-25T02:50:04.882Z,21.90
2022-07-25T02:52:31.517Z,19.33
2022-07-25T02:54:58.006Z,17.13
2022-07-25T02:57:24.426Z,24.83
2022-07-25T02:59:50.850Z,24.52
2022-07-25T03:02:18.310Z,16.48
2022-07-25T03:04:44.753Z,22.90
2022-07-25T03:07:11.630Z,18.52
2022-07-25T03:09:38.103Z,16.98
2022-07-25T03:12:04.736Z,24.17
2022-07-25T03:14:31.206Z,21.30
2022-07-25T03:16:57.752Z,24.13
2022-07-25T03:19:24.181Z,16.85
2022-07-25T03:21:50.690Z,19.70
2022-07-25T03:24:18.935Z,15.88
2022-07-25T03:26:45.841Z,16.10
2022-07-25T03:29:12.463Z,19.10
2022-07-25T03:31:38.962Z,19.40
2022-07-25T03:34:06.115Z,21.10
2022-07-25T03:36:32.751Z,19.83
2022-07-25T03:38:59.322Z,17.77
2022-07-25T03:41:27.213Z,17.95
2022-07-25T03:43:54.489Z,17.17
2022-07-25T03:46:21.031Z,19.92
2022-07-25T03:48:47.594Z,18.60
2022-07-25T03:51:14.105Z,19.55
2022-07-25T03:53:59.123Z,21.30
2022-07-25T03:56:25.704Z,19.20
2022-07-25T03:58:52.164Z,18.60
2022-07-25T04:01:18.641Z,18.83
2022-07-25T04:03:45.757Z,21.55
2022-07-25T04:06:12.159Z,17.80
2022-07-25T04:08:39.677Z,18.75
2022-07-25T04:11:06.149Z,18.20
2022-07-25T04:13:32.926Z,17.20
2022-07-25T04:15:59.506Z,17.80
2022-07-25T04:18:28.532Z,27.70
2022-07-25T04:20:55.479Z,16.10
2022-07-25T04:23:21.963Z,16.38
2022-07-25T04:25:48.351Z,17.35
2022-07-25T04:28:14.878Z,19.77
2022-07-25T04:30:41.544Z,20.73
2022-07-25T04:33:07.918Z,19.45
2022-07-25T04:35:35.025Z,17.75
2022-07-25T04:38:02.922Z,21.05
2022-07-25T04:40:29.424Z,24.92
2022-07-25T04:42:55.913Z,18.25
2022-07-25T04:45:22.589Z,17.65
2022-07-25T04:47:49.174Z,22.05
2022-07-25T04:50:15.813Z,19.50
2022-07-25T04:52:42.536Z,18.90
2022-07-25T04:55:09.088Z,17.02
2022-07-25T04:57:35.959Z,19.30
2022-07-25T05:00:04.065Z,20.17
2022-07-25T05:02:30.529Z,17.65
2022-07-25T05:04:57.015Z,20.42
2022-07-25T05:07:24.126Z,16.70
2022-07-25T05:09:50.538Z,20.42
2022-07-25T05:12:17.050Z,20.35
2022-07-25T05:14:43.534Z,20.38
2022-07-25T05:17:10.960Z,18.95
2022-07-25T05:19:37.339Z,17.05
2022-07-25T05:22:04.586Z,15.68
2022-07-25T05:24:37.152Z,17.08
2022-07-25T05:27:04.258Z,18.55
2022-07-25T05:29:31.266Z,15.23
2022-07-25T05:31:58.024Z,20.00
2022-07-25T05:34:24.692Z,19.83
2022-07-25T05:36:51.168Z,16.42
2022-07-25T05:39:17.627Z,16.88
2022-07-25T05:41:44.030Z,15.65
2022-07-25T05:44:10.910Z,16.00
2022-07-25T05:46:37.493Z,20.92
2022-07-25T05:49:03.971Z,16.85
2022-07-25T05:51:30.474Z,14.52
2022-07-25T05:53:56.927Z,18.58
2022-07-25T05:56:23.414Z,23.45
2022-07-25T05:58:49.835Z,33.25
2022-07-25T06:01:16.599Z,18.05
2022-07-25T06:03:43.028Z,16.52
2022-07-25T06:06:09.487Z,18.25
2022-07-25T06:08:36.285Z,19.05
2022-07-25T06:11:04.922Z,20.13
2022-07-25T06:13:31.636Z,15.85
2022-07-25T06:16:01.291Z,19.27
2022-07-25T06:18:28.181Z,19.50
2022-07-25T06:20:54.593Z,18.35
2022-07-25T06:23:21.157Z,14.27
2022-07-25T06:25:50.425Z,15.13
2022-07-25T06:28:18.142Z,15.32
2022-07-25T06:30:45.399Z,15.18
2022-07-25T06:33:12.081Z,14.50
2022-07-25T06:35:38.856Z,12.32
2022-07-25T06:38:05.792Z,15.45
2022-07-25T06:40:32.235Z,11.32
2022-07-25T06:42:58.650Z,14.45
2022-07-25T06:45:25.468Z,13.82
2022-07-25T06:47:51.992Z,14.07
2022-07-25T06:50:18.761Z,12.20
2022-07-25T06:52:47.814Z,11.50
2022-07-25T06:55:14.975Z,11.40
2022-07-25T06:57:41.964Z,12.13
2022-07-25T07:00:10.557Z,13.27
2022-07-25T07:02:54.215Z,12.60
2022-07-25T07:05:20.783Z,17.65
2022-07-25T07:07:48.731Z,10.95
2022-07-25T07:10:15.565Z,14.15
2022-07-25T07:12:41.976Z,13.70
2022-07-25T07:15:09.421Z,10.18
2022-07-25T07:17:35.860Z,9.20
2022-07-25T07:20:02.575Z,16.70
2022-07-25T07:22:29.292Z,12.73
2022-07-25T07:24:56.259Z,15.85
2022-07-25T07:27:24.303Z,11.98
2022-07-25T07:29:50.951Z,10.02
2022-07-25T07:32:17.597Z,16.20
2022-07-25T07:34:44.171Z,12.60
2022-07-25T07:37:11.138Z,12.13
2022-07-25T07:39:37.595Z,11.27
2022-07-25T07:42:04.860Z,14.50
2022-07-25T07:44:31.307Z,14.98
2022-07-25T07:47:01.644Z,12.77
2022-07-25T07:49:28.550Z,13.65
2022-07-25T07:51:56.552Z,12.05
2022-07-25T07:54:41.697Z,16.98
2022-07-25T07:57:08.311Z,14.07
2022-07-25T07:59:34.813Z,12.45
2022-07-25T08:02:01.836Z,16.63
2022-07-25T08:04:28.500Z,15.48
2022-07-25T08:06:54.990Z,13.20
2022-07-25T08:09:21.379Z,13.38
2022-07-25T08:11:47.811Z,12.00
2022-07-25T08:14:14.248Z,13.52
2022-07-25T08:16:40.710Z,11.80
2022-07-25T08:19:07.335Z,11.40
2022-07-25T08:21:33.752Z,11.27
2022-07-25T08:24:00.246Z,10.75
2022-07-25T08:26:27.937Z,13.80
2022-07-25T08:29:17.094Z,11.75
2022-07-25T08:31:41.021Z,10.45
2022-07-25T08:34:07.875Z,10.88
2022-07-25T08:36:34.953Z,9.35
2022-07-25T08:39:01.964Z,14.95
2022-07-25T08:41:28.629Z,12.90
2022-07-25T08:43:55.531Z,12.15
2022-07-25T08:46:22.070Z,9.38
2022-07-25T08:48:49.137Z,15.10
2022-07-25T08:51:15.737Z,11.50
2022-07-25T08:53:42.543Z,10.70
2022-07-25T08:56:20.737Z,9.60
2022-07-25T08:58:47.689Z,11.10
2022-07-25T09:01:14.438Z,11.90
2022-07-25T09:03:42.119Z,10.07
2022-07-25T09:06:19.071Z,11.25
2022-07-25T09:08:52.594Z,11.65
2022-07-25T09:11:28.939Z,14.48
2022-07-25T09:14:02.827Z,11.32
2022-07-25T09:16:32.813Z,16.92
2022-07-25T09:19:17.627Z,11.55
2022-07-25T09:21:45.733Z,11.35
2022-07-25T09:24:14.083Z,10.73
2022-07-25T09:26:50.302Z,15.07
2022-07-25T09:29:30.267Z,10.35
2022-07-25T09:31:57.346Z,12.52
2022-07-25T09:34:37.977Z,14.73
2022-07-25T09:37:06.344Z,15.05
2022-07-25T09:39:33.518Z,10.57
2022-07-25T09:41:59.918Z,12.60
2022-07-25T09:44:32.248Z,10.52
2022-07-25T09:47:01.779Z,11.35
2022-07-25T09:49:39.290Z,8.57
2022-07-25T09:52:06.385Z,9.40
2022-07-25T09:54:33.283Z,9.55
2022-07-25T09:56:59.769Z,9.63
2022-07-25T09:59:26.231Z,12.23
2022-07-25T10:02:00.796Z,8.30
2022-07-25T10:04:45.727Z,10.10
2022-07-25T10:07:16.317Z,10.55
2022-07-25T10:09:47.140Z,12.40
2022-07-25T10:12:15.043Z,8.40
2022-07-25T10:14:41.789Z,9.57
2022-07-25T10:17:08.710Z,17.30
2022-07-25T10:19:38.287Z,9.82
2022-07-25T10:22:04.736Z,13.55
2022-07-25T10:24:34.905Z,10.65
2022-07-25T10:27:08.063Z,10.73
2022-07-25T10:29:35.431Z,11.23
2022-07-25T10:32:06.437Z,10.15
2022-07-25T10:34:33.156Z,12.13
2022-07-25T10:37:18.393Z,14.35
2022-07-25T10:39:46.040Z,7.90
2022-07-25T10:42:13.575Z,7.88
2022-07-25T10:44:41.610Z,8.80
2022-07-25T10:47:12.434Z,14.50
2022-07-25T10:49:46.436Z,10.43
2022-07-25T10:52:30.778Z,8.70
2022-07-25T10:55:05.476Z,9.68
2022-07-25T10:57:32.376Z,14.25
2022-07-25T11:00:06.330Z,7.70
2022-07-25T11:02:32.949Z,9.10
2022-07-25T11:05:01.311Z,11.15
2022-07-25T11:07:28.959Z,10.60
2022-07-25T11:09:59.646Z,9.50
2022-07-25T11:12:26.507Z,7.75
2022-07-25T11:14:56.323Z,9.50
2022-07-25T11:17:23.802Z,12.05
2022-07-25T11:19:54.772Z,7.82
2022-07-25T11:22:21.571Z,8.98
2022-07-25T11:24:48.187Z,12.50
2022-07-25T11:27:28.050Z,7.70
2022-07-25T11:30:05.648Z,9.48
2022-07-25T11:32:39.171Z,9.18
2022-07-25T11:35:06.211Z,9.10
2022-07-25T11:37:35.099Z,7.05
2022-07-25T11:40:02.223Z,7.28
2022-07-25T11:42:38.668Z,9.45
2022-07-25T11:45:15.740Z,9.68
2022-07-25T11:47:42.293Z,7.63
2022-07-25T11:50:14.655Z,7.47
2022-07-25T11:52:42.659Z,10.88
2022-07-25T11:55:18.233Z,7.35
2022-07-25T11:57:46.290Z,9.60
2022-07-25T12:00:19.181Z,9.63
2022-07-25T12:02:46.084Z,11.82
2022-07-25T12:05:14.371Z,6.47
2022-07-25T12:07:44.766Z,7.72
2022-07-25T12:10:31.454Z,9.57
2022-07-25T12:12:58.462Z,9.40
2022-07-25T12:15:29.559Z,7.60
2022-07-25T12:17:56.820Z,7.18
2022-07-25T12:20:25.710Z,10.70
2022-07-25T12:22:53.322Z,13.30
2022-07-25T12:25:19.794Z,11.38
2022-07-25T12:27:46.349Z,9.20
2022-07-25T12:30:13.346Z,10.77
2022-07-25T12:32:41.448Z,9.13
2022-07-25T12:35:09.736Z,11.38
2022-07-25T12:37:37.347Z,11.02
2022-07-25T12:40:04.595Z,6.93
2022-07-25T12:42:31.241Z,9.45
2022-07-25T12:44:57.981Z,9.00
2022-07-25T12:47:24.829Z,10.85
2022-07-25T12:49:51.237Z,9.68
2022-07-25T12:52:17.689Z,7.60
2022-07-25T12:54:44.699Z,7.53
2022-07-25T12:57:11.840Z,8.70
2022-07-25T12:59:38.383Z,7.68
2022-07-25T13:02:04.953Z,9.77
2022-07-25T13:04:32.138Z,9.00
2022-07-25T13:06:59.275Z,8.57
2022-07-25T13:09:25.955Z,6.78
2022-07-25T13:11:52.691Z,10.80
2022-07-25T13:14:19.145Z,8.15
2022-07-25T13:16:46.117Z,6.65
2022-07-25T13:19:12.935Z,7.85
2022-07-25T13:21:39.453Z,7.40
2022-07-25T13:24:07.130Z,8.27
2022-07-25T13:26:33.960Z,6.85
2022-07-25T13:29:00.509Z,10.20
2022-07-25T13:31:27.516Z,9.65
2022-07-25T13:33:54.100Z,11.98
2022-07-25T13:36:20.552Z,12.57
2022-07-25T13:38:47.833Z,8.50
2022-07-25T13:41:14.553Z,9.73
2022-07-25T13:43:42.971Z,9.85
2022-07-25T13:46:09.802Z,6.13
2022-07-25T13:48:37.071Z,5.93
2022-07-25T13:51:03.690Z,9.45
2022-07-25T13:53:30.782Z,7.03
2022-07-25T13:55:58.370Z,8.52
2022-07-25T13:58:24.955Z,10.75
2022-07-25T14:00:51.532Z,10.73
2022-07-25T14:03:18.109Z,7.90
2022-07-25T14:05:44.514Z,6.47
2022-07-25T14:08:11.410Z,11.07
2022-07-25T14:10:38.072Z,8.55
2022-07-25T14:13:04.710Z,6.20
2022-07-25T14:15:31.171Z,7.75
2022-07-25T14:17:57.638Z,9.68
2022-07-25T14:20:24.149Z,7.40
2022-07-25T14:22:50.623Z,6.50
2022-07-25T14:25:17.031Z,7.15
2022-07-25T14:27:45.102Z,7.07
2022-07-25T14:30:12.565Z,7.18
2022-07-25T14:32:39.418Z,8.55
2022-07-25T14:35:06.183Z,6.43
2022-07-25T14:37:33.792Z,5.57
2022-07-25T14:40:01.781Z,6.20
2022-07-25T14:42:28.429Z,12.82
2022-07-25T14:44:54.882Z,12.98
2022-07-25T14:47:21.755Z,6.47
2022-07-25T14:49:48.367Z,7.45
2022-07-25T14:52:18.665Z,6.63
2022-07-25T14:54:45.110Z,7.85
2022-07-25T14:57:11.553Z,9.32
2022-07-25T14:59:37.979Z,6.13
2022-07-25T15:02:04.496Z,7.18
2022-07-25T15:04:30.957Z,12.27
2022-07-25T15:06:57.593Z,7.20
2022-07-25T15:09:24.278Z,10.65
2022-07-25T15:11:50.710Z,7.82
2022-07-25T15:14:17.146Z,6.68
2022-07-25T15:16:43.709Z,6.82
2022-07-25T15:19:18.050Z,6.30
2022-07-25T15:21:45.188Z,11.40
2022-07-25T15:24:11.841Z,8.82
2022-07-25T15:26:38.421Z,8.63
2022-07-25T15:29:09.812Z,8.77
2022-07-25T15:34:03.177Z,6.80
2022-07-25T15:36:29.976Z,5.57
2022-07-25T15:38:56.794Z,5.63
2022-07-25T15:41:23.270Z,7.00
2022-07-25T15:43:49.725Z,8.75
2022-07-25T15:46:16.384Z,7.72
2022-07-25T15:48:43.697Z,8.88
2022-07-25T15:51:10.753Z,11.18
2022-07-25T15:53:37.319Z,11.68
2022-07-25T15:56:04.513Z,11.40
2022-07-25T15:58:31.016Z,10.70
2022-07-25T16:00:57.543Z,6.78
2022-07-25T16:03:24.118Z,7.80
2022-07-25T16:05:50.577Z,7.63
2022-07-25T16:08:18.323Z,6.25
2022-07-25T16:10:44.734Z,7.10
2022-07-25T16:13:11.231Z,6.57
2022-07-25T16:15:37.692Z,9.45
2022-07-25T16:18:04.130Z,7.00
2022-07-25T16:20:31.948Z,8.80
2022-07-25T16:22:59.339Z,6.63
2022-07-25T16:25:26.587Z,6.53
2022-07-25T16:27:53.102Z,7.70
2022-07-25T16:30:20.373Z,6.50
2022-07-25T16:32:47.999Z,7.45
2022-07-25T16:35:14.857Z,5.95
2022-07-25T16:37:42.510Z,8.23
2022-07-25T16:40:09.648Z,6.50
2022-07-25T16:42:36.309Z,10.80
2022-07-25T16:45:02.955Z,8.60
2022-07-25T16:47:29.403Z,12.68
2022-07-25T16:49:55.860Z,12.85
2022-07-25T16:52:22.945Z,6.05
2022-07-25T16:54:49.563Z,7.45
2022-07-25T16:57:15.983Z,13.68
2022-07-25T16:59:42.632Z,6.75
2022-07-25T17:02:09.095Z,6.57
2022-07-25T17:04:35.988Z,5.70
2022-07-25T17:07:02.587Z,9.07
2022-07-25T17:09:29.065Z,8.77
2022-07-25T17:11:55.496Z,7.53
2022-07-25T17:14:25.185Z,9.40
2022-07-25T17:16:56.083Z,10.45
2022-07-25T17:19:22.550Z,9.45
2022-07-25T17:21:49.047Z,11.35
2022-07-25T17:24:15.435Z,8.10
2022-07-25T17:26:41.936Z,8.00
2022-07-25T17:29:08.863Z,12.23
2022-07-25T17:31:35.940Z,9.35
2022-07-25T17:34:02.480Z,9.18
2022-07-25T17:36:28.913Z,9.57
2022-07-25T17:38:55.374Z,8.20
2022-07-25T17:41:21.770Z,8.38
2022-07-25T17:43:48.413Z,7.93
2022-07-25T17:46:15.623Z,9.18
2022-07-25T17:48:42.366Z,10.95
2022-07-25T17:51:08.895Z,12.90
2022-07-25T17:53:35.476Z,13.15
2022-07-25T17:56:02.065Z,8.73
2022-07-25T17:58:28.577Z,8.15
2022-07-25T18:01:00.861Z,11.32
2022-07-25T18:03:27.799Z,8.43
2022-07-25T18:05:55.294Z,13.75
2022-07-25T18:08:22.555Z,9.10
2022-07-25T18:10:51.990Z,8.45
2022-07-25T18:13:18.616Z,8.38
2022-07-25T18:15:45.609Z,8.65
2022-07-25T18:18:15.681Z,9.05
2022-07-25T18:20:46.976Z,7.13
2022-07-25T18:23:13.448Z,8.40
2022-07-25T18:25:40.229Z,13.30
2022-07-25T18:28:07.050Z,8.85
2022-07-25T18:30:33.502Z,9.75
2022-07-25T18:33:00.094Z,8.88
2022-07-25T18:35:26.749Z,15.18
2022-07-25T18:37:53.710Z,9.30
2022-07-25T18:40:20.867Z,10.57
2022-07-25T18:42:47.619Z,10.68
2022-07-25T18:45:16.527Z,10.23
2022-07-25T18:47:43.939Z,8.73
2022-07-25T18:50:10.694Z,12.63
2022-07-25T18:52:37.517Z,9.80
2022-07-25T18:55:05.598Z,10.85
2022-07-25T18:57:32.112Z,10.55
2022-07-25T19:00:02.772Z,10.15
2022-07-25T19:02:29.969Z,9.75
2022-07-25T19:04:56.561Z,9.05
2022-07-25T19:07:23.543Z,8.50
2022-07-25T19:09:50.627Z,8.63
2022-07-25T19:12:17.058Z,7.13
2022-07-25T19:14:44.056Z,8.02
2022-07-25T19:17:10.561Z,11.75
2022-07-25T19:19:37.098Z,13.65
2022-07-25T19:22:03.582Z,9.52
2022-07-25T19:24:31.400Z,8.93
2022-07-25T19:26:58.899Z,10.32
2022-07-25T19:29:26.639Z,11.20
2022-07-25T19:31:53.129Z,12.02
2022-07-25T19:34:19.550Z,11.75
2022-07-25T19:36:46.113Z,9.82
2022-07-25T19:39:13.017Z,9.00
2022-07-25T19:41:42.172Z,10.73
2022-07-25T19:44:12.722Z,10.65
2022-07-25T19:46:39.310Z,12.93
2022-07-25T19:49:05.982Z,9.98
2022-07-25T19:51:32.930Z,8.70
2022-07-25T19:53:59.618Z,10.38
2022-07-25T19:56:26.063Z,9.05
2022-07-25T19:58:52.490Z,9.85
2022-07-25T20:01:19.457Z,10.80
2022-07-25T20:03:45.973Z,7.82
2022-07-25T20:06:12.475Z,10.73
2022-07-25T20:08:42.838Z,8.00
2022-07-25T20:11:10.285Z,9.48
2022-07-25T20:13:36.829Z,11.27
2022-07-25T20:16:03.997Z,9.43
2022-07-25T20:18:31.878Z,9.55
2022-07-25T20:20:58.503Z,9.73
2022-07-25T20:23:25.232Z,14.73
2022-07-25T20:25:51.755Z,10.20
2022-07-25T20:28:18.252Z,11.02
2022-07-25T20:30:44.941Z,12.43
2022-07-25T20:33:11.497Z,9.27
2022-07-25T20:35:38.423Z,8.50
2022-07-25T20:38:09.123Z,10.77
2022-07-25T20:40:37.861Z,9.93
2022-07-25T20:43:07.434Z,11.30
2022-07-25T20:45:33.926Z,12.25
2022-07-25T20:48:00.389Z,8.07
2022-07-25T20:50:26.841Z,16.15
2022-07-25T20:52:53.388Z,8.52
2022-07-25T20:55:19.835Z,15.85
2022-07-25T20:57:50.493Z,9.70
2022-07-25T21:00:17.438Z,8.88
2022-07-25T21:02:44.985Z,10.52
2022-07-25T21:05:11.507Z,16.35
2022-07-25T21:07:39.498Z,10.05
2022-07-25T21:10:06.273Z,16.08
2022-07-25T21:12:33.273Z,11.32
2022-07-25T21:15:01.180Z,10.45
2022-07-25T21:17:27.778Z,8.52
2022-07-25T21:19:54.229Z,10.30
2022-07-25T21:22:20.791Z,15.98
2022-07-25T21:24:49.375Z,10.20
2022-07-25T21:27:16.425Z,12.82
2022-07-25T21:29:42.962Z,12.95
2022-07-25T21:32:09.619Z,12.55
2022-07-25T21:34:36.119Z,10.00
2022-07-25T21:37:02.710Z,11.02
2022-07-25T21:39:29.110Z,12.23
2022-07-25T21:41:55.621Z,13.57
2022-07-25T21:44:22.135Z,13.23
2022-07-25T21:46:50.043Z,11.82
2022-07-25T21:49:41.281Z,15.95
2022-07-25T21:52:09.083Z,14.82
2022-07-25T21:54:40.785Z,9.80
2022-07-25T21:57:07.223Z,11.90
2022-07-25T21:59:41.151Z,11.23
2022-07-25T22:02:07.584Z,16.05
2022-07-25T22:04:34.095Z,10.27
2022-07-25T22:07:00.666Z,14.57
2022-07-25T22:09:27.293Z,10.57
2022-07-25T22:11:54.342Z,12.60
2022-07-25T22:14:20.947Z,16.15
2022-07-25T22:16:47.508Z,12.10
2022-07-25T22:19:14.097Z,12.52
2022-07-25T22:21:41.228Z,13.43
2022-07-25T22:24:08.257Z,12.48
2022-07-25T22:26:35.336Z,11.52
2022-07-25T22:29:01.827Z,10.38
2022-07-25T22:31:29.395Z,16.77
2022-07-25T22:33:55.873Z,12.43
2022-07-25T22:36:22.267Z,11.80
2022-07-25T22:38:50.324Z,12.45
2022-07-25T22:41:16.782Z,15.85
2022-07-25T22:43:58.320Z,12.75
2022-07-25T22:46:26.885Z,11.15
2022-07-25T22:48:53.460Z,16.13
2022-07-25T22:51:19.972Z,18.30
2022-07-25T22:53:46.515Z,13.43
2022-07-25T22:56:12.951Z,11.98
2022-07-25T22:58:39.684Z,10.93
2022-07-25T23:01:06.431Z,13.98
2022-07-25T23:03:33.217Z,19.02
2022-07-25T23:06:00.014Z,12.10
2022-07-25T23:08:27.149Z,10.77
2022-07-25T23:10:53.588Z,12.75
2022-07-25T23:13:20.076Z,14.98
2022-07-25T23:15:49.607Z,16.15
2022-07-25T23:18:17.857Z,9.88
2022-07-25T23:20:44.322Z,11.88
2022-07-25T23:23:10.762Z,11.43
2022-07-25T23:25:37.198Z,15.15
2022-07-25T23:28:03.694Z,15.45
2022-07-25T23:30:30.178Z,15.05
2022-07-25T23:32:56.712Z,12.45
2022-07-25T23:35:23.215Z,22.13
2022-07-25T23:37:50.997Z,12.13
2022-07-25T23:40:17.464Z,14.20
2022-07-25T23:42:43.967Z,11.95
2022-07-25T23:45:10.787Z,12.15
2022-07-25T23:47:39.740Z,16.83
2022-07-25T23:50:07.682Z,12.18
2022-07-25T23:52:34.145Z,13.60
2022-07-25T23:55:00.598Z,13.68
2022-07-25T23:57:27.347Z,14.38
2022-07-25T23:59:53.790Z,14.05
